Terminal Aerodrome Forecast
Issued by NWS

Home | Current Version | Previous Version | Text Only | Print | Product List | Glossary Off
Versions: 1 2 3 4 5 6 7 8 9 10 11 12 13 14 15 16 17 18 19 20 21 22

000
FTUS43 KGRB 041741
TAFATW
TAF
KATW 041741Z 0418/0518 16007KT 1SM -SN BR OVC005
      TEMPO 0418/0422 1/2SM SN
     FM050100 22007KT 3SM -SN OVC012
     FM050300 23007KT P6SM BKN020
     FM051200 24006KT P6SM BKN030=

USA.gov is the U.S. government's official web portal to all federal, state and local government web resources and services.